sensor_id;sensor_type;location;lat;lon;timestamp;pressure;altitude;pressure_sealevel;temperature;humidity
17450;BME280;8842;51.244;7.102;2023-01-28T00:03:49;100520.67;;;2.82;100.00
17450;BME280;8842;51.244;7.102;2023-01-28T00:14:05;100524.37;;;2.61;100.00
17450;BME280;8842;51.244;7.102;2023-01-28T00:24:21;100533.38;;;2.67;100.00
17450;BME280;8842;51.244;7.102;2023-01-28T00:34:37;100524.73;;;2.78;100.00
17450;BME280;8842;51.244;7.102;2023-01-28T00:44:53;100516.12;;;2.74;100.00
17450;BME280;8842;51.244;7.102;2023-01-28T00:49:57;100528.47;;;2.55;100.00
17450;BME280;8842;51.244;7.102;2023-01-28T00:55:01;100526.91;;;2.64;100.00
17450;BME280;8842;51.244;7.102;2023-01-28T01:00:07;100527.98;;;2.57;100.00
17450;BME280;8842;51.244;7.102;2023-01-28T01:10:23;100525.25;;;2.60;100.00
17450;BME280;8842;51.244;7.102;2023-01-28T01:20:42;100535.55;;;2.35;100.00
17450;BME280;8842;51.244;7.102;2023-01-28T01:31:03;100537.02;;;2.45;100.00
17450;BME280;8842;51.244;7.102;2023-01-28T01:41:25;100521.97;;;2.37;100.00
17450;BME280;8842;51.244;7.102;2023-01-28T01:51:45;100529.60;;;2.29;100.00
17450;BME280;8842;51.244;7.102;2023-01-28T01:56:50;100525.51;;;2.19;100.00
17450;BME280;8842;51.244;7.102;2023-01-28T02:01:55;100525.23;;;2.45;100.00
17450;BME280;8842;51.244;7.102;2023-01-28T02:07:01;100531.27;;;2.17;100.00
17450;BME280;8842;51.244;7.102;2023-01-28T02:17:19;100527.93;;;2.26;100.00
17450;BME280;8842;51.244;7.102;2023-01-28T02:43:53;100532.88;;;2.04;100.00
17450;BME280;8842;51.244;7.102;2023-01-28T02:54:12;100548.17;;;2.03;100.00
17450;BME280;8842;51.244;7.102;2023-01-28T03:04:33;100560.64;;;2.12;100.00
17450;BME280;8842;51.244;7.102;2023-01-28T03:20:07;100552.00;;;1.90;100.00
17450;BME280;8842;51.244;7.102;2023-01-28T03:30:43;100552.97;;;2.04;100.00
17450;BME280;8842;51.244;7.102;2023-01-28T03:41:21;100544.83;;;1.98;100.00
17450;BME280;8842;51.244;7.102;2023-01-28T03:51:37;100548.29;;;1.81;100.00
17450;BME280;8842;51.244;7.102;2023-01-28T04:01:54;100558.55;;;1.90;100.00
17450;BME280;8842;51.244;7.102;2023-01-28T04:12:10;100565.27;;;1.83;100.00
17450;BME280;8842;51.244;7.102;2023-01-28T04:22:25;100562.28;;;1.98;100.00
17450;BME280;8842;51.244;7.102;2023-01-28T04:32:40;100559.63;;;1.64;100.00
17450;BME280;8842;51.244;7.102;2023-01-28T04:42:57;100577.81;;;1.70;100.00
17450;BME280;8842;51.244;7.102;2023-01-28T04:53:13;100592.90;;;1.59;100.00
17450;BME280;8842;51.244;7.102;2023-01-28T05:03:29;100601.28;;;1.54;100.00
17450;BME280;8842;51.244;7.102;2023-01-28T05:13:45;100593.41;;;1.56;100.00
17450;BME280;8842;51.244;7.102;2023-01-28T05:24:01;100594.70;;;1.76;100.00
17450;BME280;8842;51.244;7.102;2023-01-28T05:29:05;100588.56;;;1.58;100.00
17450;BME280;8842;51.244;7.102;2023-01-28T05:39:21;100582.76;;;1.63;100.00
17450;BME280;8842;51.244;7.102;2023-01-28T05:49:37;100590.94;;;1.69;100.00
17450;BME280;8842;51.244;7.102;2023-01-28T05:59:52;100608.17;;;1.60;100.00
17450;BME280;8842;51.244;7.102;2023-01-28T06:10:10;100628.91;;;1.48;100.00
17450;BME280;8842;51.244;7.102;2023-01-28T06:20:26;100624.55;;;1.28;100.00
17450;BME280;8842;51.244;7.102;2023-01-28T06:30:41;100629.02;;;1.23;100.00
17450;BME280;8842;51.244;7.102;2023-01-28T06:35:45;100626.02;;;1.41;100.00
17450;BME280;8842;51.244;7.102;2023-01-28T06:40:53;100621.56;;;1.46;100.00
17450;BME280;8842;51.244;7.102;2023-01-28T06:51:10;100625.14;;;1.42;100.00
17450;BME280;8842;51.244;7.102;2023-01-28T07:01:25;100634.45;;;1.55;100.00
17450;BME280;8842;51.244;7.102;2023-01-28T07:11:40;100640.20;;;1.31;100.00
17450;BME280;8842;51.244;7.102;2023-01-28T07:21:55;100624.80;;;1.37;100.00
17450;BME280;8842;51.244;7.102;2023-01-28T07:32:12;100618.80;;;1.33;100.00
17450;BME280;8842;51.244;7.102;2023-01-28T07:42:28;100630.26;;;1.26;100.00
17450;BME280;8842;51.244;7.102;2023-01-28T07:52:46;100632.72;;;1.34;100.00
17450;BME280;8842;51.244;7.102;2023-01-28T08:03:06;100639.33;;;1.31;100.00
17450;BME280;8842;51.244;7.102;2023-01-28T08:18:33;100656.89;;;1.26;100.00
17450;BME280;8842;51.244;7.102;2023-01-28T08:34:01;100681.88;;;1.40;100.00
17450;BME280;8842;51.244;7.102;2023-01-28T08:44:16;100699.30;;;1.41;99.05
17450;BME280;8842;51.244;7.102;2023-01-28T08:59:44;100696.90;;;1.51;100.00
17450;BME280;8842;51.244;7.102;2023-01-28T09:04:48;100713.51;;;1.50;100.00
17450;BME280;8842;51.244;7.102;2023-01-28T09:15:07;100728.87;;;1.46;99.87
17450;BME280;8842;51.244;7.102;2023-01-28T09:20:11;100748.19;;;1.41;98.65
17450;BME280;8842;51.244;7.102;2023-01-28T09:25:16;100754.40;;;1.56;100.00
17450;BME280;8842;51.244;7.102;2023-01-28T09:35:33;100772.72;;;1.34;99.46
17450;BME280;8842;51.244;7.102;2023-01-28T09:45:50;100762.66;;;1.58;100.00
17450;BME280;8842;51.244;7.102;2023-01-28T09:50:55;100764.55;;;1.50;100.00
17450;BME280;8842;51.244;7.102;2023-01-28T10:12:07;100777.41;;;1.40;96.75
17450;BME280;8842;51.244;7.102;2023-01-28T10:22:26;100764.90;;;1.54;97.05
17450;BME280;8842;51.244;7.102;2023-01-28T10:32:47;100759.75;;;1.50;94.82
17450;BME280;8842;51.244;7.102;2023-01-28T10:43:03;100768.66;;;1.41;96.70
17450;BME280;8842;51.244;7.102;2023-01-28T10:58:32;100755.22;;;1.80;100.00
17450;BME280;8842;51.244;7.102;2023-01-28T11:08:48;100759.73;;;1.73;98.05
17450;BME280;8842;51.244;7.102;2023-01-28T11:19:05;100784.27;;;1.46;99.18
17450;BME280;8842;51.244;7.102;2023-01-28T11:29:29;100773.95;;;1.60;97.01
17450;BME280;8842;51.244;7.102;2023-01-28T11:34:34;100793.52;;;1.41;96.29
17450;BME280;8842;51.244;7.102;2023-01-28T11:44:50;100788.98;;;1.73;94.40
17450;BME280;8842;51.244;7.102;2023-01-28T11:55:32;100774.11;;;1.75;92.98
17450;BME280;8842;51.244;7.102;2023-01-28T12:05:51;100763.19;;;1.53;95.34
17450;BME280;8842;51.244;7.102;2023-01-28T12:16:26;100748.38;;;1.08;94.97
17450;BME280;8842;51.244;7.102;2023-01-28T12:26:48;100755.91;;;1.23;93.55
17450;BME280;8842;51.244;7.102;2023-01-28T12:42:34;100733.58;;;1.72;95.38
17450;BME280;8842;51.244;7.102;2023-01-28T12:47:40;100718.58;;;1.37;91.49
17450;BME280;8842;51.244;7.102;2023-01-28T12:57:58;100692.78;;;1.60;92.40
17450;BME280;8842;51.244;7.102;2023-01-28T13:08:21;100680.09;;;1.20;92.01
17450;BME280;8842;51.244;7.102;2023-01-28T13:18:45;100629.44;;;1.45;91.37
17450;BME280;8842;51.244;7.102;2023-01-28T13:23:50;100627.02;;;1.36;88.57
17450;BME280;8842;51.244;7.102;2023-01-28T13:39:47;100661.66;;;1.26;90.15
17450;BME280;8842;51.244;7.102;2023-01-28T13:50:06;100674.67;;;1.72;91.26
17450;BME280;8842;51.244;7.102;2023-01-28T14:00:31;100688.20;;;1.71;89.73
17450;BME280;8842;51.244;7.102;2023-01-28T14:11:15;100703.71;;;1.80;90.38
17450;BME280;8842;51.244;7.102;2023-01-28T14:21:53;100704.05;;;1.84;89.27
17450;BME280;8842;51.244;7.102;2023-01-28T14:32:11;100697.13;;;2.01;90.94
17450;BME280;8842;51.244;7.102;2023-01-28T14:42:35;100687.86;;;2.05;88.94
17450;BME280;8842;51.244;7.102;2023-01-28T14:53:28;100671.55;;;1.93;86.34
17450;BME280;8842;51.244;7.102;2023-01-28T15:03:45;100624.30;;;1.78;87.29
17450;BME280;8842;51.244;7.102;2023-01-28T15:14:00;100635.72;;;1.57;89.86
17450;BME280;8842;51.244;7.102;2023-01-28T15:24:18;100658.27;;;1.43;92.15
17450;BME280;8842;51.244;7.102;2023-01-28T15:29:30;100666.05;;;1.26;93.77
17450;BME280;8842;51.244;7.102;2023-01-28T15:39:46;100676.64;;;1.40;92.65
17450;BME280;8842;51.244;7.102;2023-01-28T15:55:37;100673.41;;;1.06;92.84
17450;BME280;8842;51.244;7.102;2023-01-28T16:05:59;100698.78;;;1.02;97.14
17450;BME280;8842;51.244;7.102;2023-01-28T16:16:23;100725.56;;;0.91;96.18
17450;BME280;8842;51.244;7.102;2023-01-28T16:26:42;100729.84;;;0.70;99.24
17450;BME280;8842;51.244;7.102;2023-01-28T16:31:47;100750.86;;;0.64;98.82
17450;BME280;8842;51.244;7.102;2023-01-28T16:42:03;100753.53;;;0.61;100.00
17450;BME280;8842;51.244;7.102;2023-01-28T16:47:07;100767.25;;;0.49;99.27
17450;BME280;8842;51.244;7.102;2023-01-28T16:57:23;100777.28;;;0.46;100.00
17450;BME280;8842;51.244;7.102;2023-01-28T17:07:39;100773.45;;;0.40;100.00
17450;BME280;8842;51.244;7.102;2023-01-28T17:17:54;100744.19;;;0.47;100.00
17450;BME280;8842;51.244;7.102;2023-01-28T17:28:16;100744.03;;;0.29;100.00
17450;BME280;8842;51.244;7.102;2023-01-28T17:33:20;100754.11;;;0.25;100.00
17450;BME280;8842;51.244;7.102;2023-01-28T17:43:36;100730.60;;;0.25;100.00
17450;BME280;8842;51.244;7.102;2023-01-28T17:53:52;100735.56;;;0.12;100.00
17450;BME280;8842;51.244;7.102;2023-01-28T18:04:15;100762.98;;;-0.19;100.00
17450;BME280;8842;51.244;7.102;2023-01-28T18:09:19;100777.48;;;-0.31;100.00
17450;BME280;8842;51.244;7.102;2023-01-28T18:19:35;100784.01;;;-0.31;100.00
17450;BME280;8842;51.244;7.102;2023-01-28T18:29:51;100799.95;;;-0.17;100.00
17450;BME280;8842;51.244;7.102;2023-01-28T18:40:10;100802.08;;;-0.15;100.00
17450;BME280;8842;51.244;7.102;2023-01-28T18:45:16;100789.77;;;-0.38;100.00
17450;BME280;8842;51.244;7.102;2023-01-28T18:55:32;100806.77;;;-0.42;100.00
17450;BME280;8842;51.244;7.102;2023-01-28T19:05:47;100814.63;;;-0.45;100.00
17450;BME280;8842;51.244;7.102;2023-01-28T19:16:06;100808.81;;;-0.33;100.00
17450;BME280;8842;51.244;7.102;2023-01-28T19:26:22;100804.70;;;-0.53;100.00
17450;BME280;8842;51.244;7.102;2023-01-28T19:36:41;100821.31;;;-0.60;100.00
17450;BME280;8842;51.244;7.102;2023-01-28T19:57:20;100831.84;;;-0.69;100.00
17450;BME280;8842;51.244;7.102;2023-01-28T20:02:25;100828.09;;;-0.87;100.00
17450;BME280;8842;51.244;7.102;2023-01-28T20:07:30;100835.89;;;-0.84;100.00
17450;BME280;8842;51.244;7.102;2023-01-28T20:12:34;100851.11;;;-0.84;100.00
17450;BME280;8842;51.244;7.102;2023-01-28T20:22:49;100843.36;;;-0.93;100.00
17450;BME280;8842;51.244;7.102;2023-01-28T20:27:53;100836.47;;;-0.98;100.00
17450;BME280;8842;51.244;7.102;2023-01-28T20:43:20;100823.95;;;-1.09;100.00
17450;BME280;8842;51.244;7.102;2023-01-28T20:53:37;100812.61;;;-1.05;100.00
17450;BME280;8842;51.244;7.102;2023-01-28T21:03:53;100799.55;;;-1.02;100.00
17450;BME280;8842;51.244;7.102;2023-01-28T21:14:10;100796.44;;;-1.45;100.00
17450;BME280;8842;51.244;7.102;2023-01-28T21:24:27;100788.05;;;-1.26;100.00
17450;BME280;8842;51.244;7.102;2023-01-28T21:34:43;100780.83;;;-1.48;100.00
17450;BME280;8842;51.244;7.102;2023-01-28T21:44:58;100773.49;;;-1.51;100.00
17450;BME280;8842;51.244;7.102;2023-01-28T21:55:15;100774.38;;;-1.57;100.00
17450;BME280;8842;51.244;7.102;2023-01-28T22:05:33;100764.98;;;-1.77;100.00
17450;BME280;8842;51.244;7.102;2023-01-28T22:15:50;100766.78;;;-1.85;100.00
17450;BME280;8842;51.244;7.102;2023-01-28T22:26:09;100772.73;;;-1.68;100.00
17450;BME280;8842;51.244;7.102;2023-01-28T22:36:26;100793.62;;;-1.77;100.00
17450;BME280;8842;51.244;7.102;2023-01-28T22:46:41;100787.92;;;-1.66;100.00
17450;BME280;8842;51.244;7.102;2023-01-28T23:02:08;100800.09;;;-1.71;100.00
17450;BME280;8842;51.244;7.102;2023-01-28T23:12:24;100784.88;;;-1.69;100.00
17450;BME280;8842;51.244;7.102;2023-01-28T23:22:40;100787.64;;;-1.91;100.00
17450;BME280;8842;51.244;7.102;2023-01-28T23:33:14;100774.72;;;-2.10;100.00
17450;BME280;8842;51.244;7.102;2023-01-28T23:43:30;100769.42;;;-1.91;100.00
17450;BME280;8842;51.244;7.102;2023-01-28T23:53:48;100770.28;;;-1.94;100.00
